sensor_id;sensor_type;location;lat;lon;timestamp;pressure;altitude;pressure_sealevel;temperature;humidity
78117;BME280;69042;59.120;37.904;2023-04-24T00:00:31;99788.22;;;10.18;52.89
78117;BME280;69042;59.120;37.904;2023-04-24T00:02:58;99783.13;;;10.15;53.19
78117;BME280;69042;59.120;37.904;2023-04-24T00:05:24;99789.34;;;10.13;53.03
78117;BME280;69042;59.120;37.904;2023-04-24T00:07:51;99788.50;;;10.12;53.22
78117;BME280;69042;59.120;37.904;2023-04-24T00:10:21;99788.50;;;10.12;53.09
78117;BME280;69042;59.120;37.904;2023-04-24T00:12:47;99785.91;;;10.12;53.26
78117;BME280;69042;59.120;37.904;2023-04-24T00:15:13;99791.13;;;10.12;53.50
78117;BME280;69042;59.120;37.904;2023-04-24T00:17:40;99789.44;;;10.11;53.55
78117;BME280;69042;59.120;37.904;2023-04-24T00:20:06;99793.03;;;10.09;53.62
78117;BME280;69042;59.120;37.904;2023-04-24T00:22:33;99798.25;;;10.09;53.57
78117;BME280;69042;59.120;37.904;2023-04-24T00:24:59;99795.72;;;10.07;53.44
78117;BME280;69042;59.120;37.904;2023-04-24T00:27:26;99790.53;;;10.06;53.59
78117;BME280;69042;59.120;37.904;2023-04-24T00:29:52;99787.09;;;10.05;53.53
78117;BME280;69042;59.120;37.904;2023-04-24T00:32:18;99777.56;;;10.04;53.60
78117;BME280;69042;59.120;37.904;2023-04-24T00:34:44;99783.66;;;10.05;53.64
78117;BME280;69042;59.120;37.904;2023-04-24T00:37:11;99778.44;;;10.05;53.80
78117;BME280;69042;59.120;37.904;2023-04-24T00:39:37;99783.69;;;10.03;53.72
78117;BME280;69042;59.120;37.904;2023-04-24T00:42:03;99776.03;;;10.00;53.97
78117;BME280;69042;59.120;37.904;2023-04-24T00:44:33;99778.75;;;9.97;53.95
78117;BME280;69042;59.120;37.904;2023-04-24T00:47:01;99777.97;;;9.95;54.22
78117;BME280;69042;59.120;37.904;2023-04-24T00:49:27;99779.81;;;9.93;54.16
78117;BME280;69042;59.120;37.904;2023-04-24T00:51:53;99775.56;;;9.90;54.19
78117;BME280;69042;59.120;37.904;2023-04-24T00:54:19;99782.72;;;9.87;54.11
78117;BME280;69042;59.120;37.904;2023-04-24T00:56:46;99781.97;;;9.83;54.16
78117;BME280;69042;59.120;37.904;2023-04-24T00:59:13;99785.44;;;9.84;54.53
78117;BME280;69042;59.120;37.904;2023-04-24T01:01:39;99775.00;;;9.84;54.76
78117;BME280;69042;59.120;37.904;2023-04-24T01:04:09;99778.38;;;9.86;54.62
78117;BME280;69042;59.120;37.904;2023-04-24T01:06:38;99783.50;;;9.89;54.89
78117;BME280;69042;59.120;37.904;2023-04-24T01:09:05;99780.94;;;9.87;54.79
78117;BME280;69042;59.120;37.904;2023-04-24T01:11:31;99783.50;;;9.89;54.78
78117;BME280;69042;59.120;37.904;2023-04-24T01:13:57;99783.59;;;9.86;54.69
78117;BME280;69042;59.120;37.904;2023-04-24T01:16:24;99778.53;;;9.83;54.54
78117;BME280;69042;59.120;37.904;2023-04-24T01:18:52;99788.13;;;9.82;54.47
78117;BME280;69042;59.120;37.904;2023-04-24T01:21:20;99790.00;;;9.78;54.22
78117;BME280;69042;59.120;37.904;2023-04-24T01:23:47;99793.75;;;9.73;54.62
78117;BME280;69042;59.120;37.904;2023-04-24T01:26:15;99788.75;;;9.68;54.93
78117;BME280;69042;59.120;37.904;2023-04-24T01:28:41;99786.19;;;9.67;54.86
78117;BME280;69042;59.120;37.904;2023-04-24T01:31:07;99789.69;;;9.66;54.84
78117;BME280;69042;59.120;37.904;2023-04-24T01:33:34;99783.63;;;9.65;54.99
78117;BME280;69042;59.120;37.904;2023-04-24T01:36:00;99786.34;;;9.64;55.06
78117;BME280;69042;59.120;37.904;2023-04-24T01:38:27;99786.44;;;9.61;55.49
78117;BME280;69042;59.120;37.904;2023-04-24T01:40:53;99784.03;;;9.56;55.18
78117;BME280;69042;59.120;37.904;2023-04-24T01:43:20;99788.53;;;9.52;55.63
78117;BME280;69042;59.120;37.904;2023-04-24T01:45:46;99788.66;;;9.49;55.51
78117;BME280;69042;59.120;37.904;2023-04-24T01:48:13;99789.66;;;9.47;55.77
78117;BME280;69042;59.120;37.904;2023-04-24T01:50:40;99791.47;;;9.45;55.61
78117;BME280;69042;59.120;37.904;2023-04-24T01:53:06;99791.53;;;9.43;55.81
78117;BME280;69042;59.120;37.904;2023-04-24T01:55:33;99789.91;;;9.41;55.76
78117;BME280;69042;59.120;37.904;2023-04-24T01:57:59;99793.44;;;9.40;56.17
78117;BME280;69042;59.120;37.904;2023-04-24T02:00:26;99790.84;;;9.40;55.88
78117;BME280;69042;59.120;37.904;2023-04-24T02:02:53;99783.84;;;9.40;56.23
78117;BME280;69042;59.120;37.904;2023-04-24T02:05:19;99788.22;;;9.40;55.90
78117;BME280;69042;59.120;37.904;2023-04-24T02:07:45;99784.69;;;9.41;56.00
78117;BME280;69042;59.120;37.904;2023-04-24T02:10:12;99783.78;;;9.42;56.28
78117;BME280;69042;59.120;37.904;2023-04-24T02:12:42;99789.00;;;9.42;56.38
78117;BME280;69042;59.120;37.904;2023-04-24T02:15:08;99789.84;;;9.42;56.30
78117;BME280;69042;59.120;37.904;2023-04-24T02:17:37;99789.78;;;9.44;56.17
78117;BME280;69042;59.120;37.904;2023-04-24T02:20:05;99787.19;;;9.44;56.23
78117;BME280;69042;59.120;37.904;2023-04-24T02:22:32;99796.69;;;9.45;56.38
78117;BME280;69042;59.120;37.904;2023-04-24T02:25:01;99799.34;;;9.43;56.21
78117;BME280;69042;59.120;37.904;2023-04-24T02:27:29;99798.47;;;9.44;56.57
78117;BME280;69042;59.120;37.904;2023-04-24T02:29:57;99794.91;;;9.45;56.47
78117;BME280;69042;59.120;37.904;2023-04-24T02:32:23;99795.78;;;9.46;56.60
78117;BME280;69042;59.120;37.904;2023-04-24T02:34:49;99795.78;;;9.46;56.58
78117;BME280;69042;59.120;37.904;2023-04-24T02:37:16;99803.47;;;9.49;56.59
78117;BME280;69042;59.120;37.904;2023-04-24T02:39:43;99798.13;;;9.52;56.63
78117;BME280;69042;59.120;37.904;2023-04-24T02:42:09;99796.25;;;9.55;56.85
78117;BME280;69042;59.120;37.904;2023-04-24T02:44:35;99805.53;;;9.61;56.62
78117;BME280;69042;59.120;37.904;2023-04-24T02:47:02;99804.50;;;9.65;56.63
78117;BME280;69042;59.120;37.904;2023-04-24T02:49:30;99805.94;;;9.72;56.95
78117;BME280;69042;59.120;37.904;2023-04-24T02:51:56;99807.38;;;9.79;56.63
78117;BME280;69042;59.120;37.904;2023-04-24T02:54:22;99812.09;;;9.90;56.64
78117;BME280;69042;59.120;37.904;2023-04-24T02:56:49;99812.56;;;10.00;56.86
78117;BME280;69042;59.120;37.904;2023-04-24T02:59:15;99812.94;;;10.11;56.62
78117;BME280;69042;59.120;37.904;2023-04-24T03:01:41;99807.19;;;10.22;56.71
78117;BME280;69042;59.120;37.904;2023-04-24T03:04:08;99806.75;;;10.33;56.45
78117;BME280;69042;59.120;37.904;2023-04-24T03:06:34;99810.56;;;10.45;56.42
78117;BME280;69042;59.120;37.904;2023-04-24T03:09:01;99807.44;;;10.55;56.47
78117;BME280;69042;59.120;37.904;2023-04-24T03:11:28;99806.94;;;10.66;56.28
78117;BME280;69042;59.120;37.904;2023-04-24T03:13:54;99804.81;;;10.74;56.06
78117;BME280;69042;59.120;37.904;2023-04-24T03:16:20;99811.44;;;10.81;56.04
78117;BME280;69042;59.120;37.904;2023-04-24T03:18:47;99806.84;;;10.87;55.85
78117;BME280;69042;59.120;37.904;2023-04-24T03:21:14;99801.16;;;10.96;55.74
78117;BME280;69042;59.120;37.904;2023-04-24T03:23:41;99806.09;;;11.02;55.75
78117;BME280;69042;59.120;37.904;2023-04-24T03:26:09;99802.31;;;11.08;55.66
78117;BME280;69042;59.120;37.904;2023-04-24T03:28:40;99807.19;;;11.15;55.55
78117;BME280;69042;59.120;37.904;2023-04-24T03:31:07;99806.13;;;11.19;55.16
78117;BME280;69042;59.120;37.904;2023-04-24T03:33:35;99800.78;;;11.21;55.15
78117;BME280;69042;59.120;37.904;2023-04-24T03:36:02;99804.19;;;11.23;54.94
78117;BME280;69042;59.120;37.904;2023-04-24T03:38:36;99805.03;;;11.23;54.69
78117;BME280;69042;59.120;37.904;2023-04-24T03:41:22;99801.56;;;11.23;54.56
78117;BME280;69042;59.120;37.904;2023-04-24T03:43:53;99805.91;;;11.24;54.59
78117;BME280;69042;59.120;37.904;2023-04-24T03:46:19;99816.41;;;11.22;54.39
78117;BME280;69042;59.120;37.904;2023-04-24T03:48:58;99811.13;;;11.24;54.61
78117;BME280;69042;59.120;37.904;2023-04-24T03:51:29;99810.13;;;11.27;54.61
78117;BME280;69042;59.120;37.904;2023-04-24T03:54:03;99812.56;;;11.30;54.41
78117;BME280;69042;59.120;37.904;2023-04-24T03:56:31;99812.28;;;11.36;54.32
78117;BME280;69042;59.120;37.904;2023-04-24T03:58:57;99820.81;;;11.39;54.29
78117;BME280;69042;59.120;37.904;2023-04-24T04:01:24;99817.88;;;11.45;54.32
78117;BME280;69042;59.120;37.904;2023-04-24T04:03:59;99813.13;;;11.54;54.19
78117;BME280;69042;59.120;37.904;2023-04-24T04:06:27;99818.06;;;11.60;54.29
78117;BME280;69042;59.120;37.904;2023-04-24T04:08:54;99814.97;;;11.69;54.30
78117;BME280;69042;59.120;37.904;2023-04-24T04:11:21;99816.25;;;11.78;54.11
78117;BME280;69042;59.120;37.904;2023-04-24T04:13:47;99815.56;;;11.92;54.12
78117;BME280;69042;59.120;37.904;2023-04-24T04:16:16;99813.91;;;12.06;53.93
78117;BME280;69042;59.120;37.904;2023-04-24T04:18:44;99818.19;;;12.25;53.79
78117;BME280;69042;59.120;37.904;2023-04-24T04:21:11;99825.19;;;12.40;53.59
78117;BME280;69042;59.120;37.904;2023-04-24T04:23:38;99820.06;;;12.55;53.12
78117;BME280;69042;59.120;37.904;2023-04-24T04:26:18;99819.63;;;12.62;53.02
78117;BME280;69042;59.120;37.904;2023-04-24T04:29:01;99820.06;;;12.70;52.83
78117;BME280;69042;59.120;37.904;2023-04-24T04:31:29;99822.34;;;12.77;52.69
78117;BME280;69042;59.120;37.904;2023-04-24T04:33:59;99818.25;;;12.87;52.42
78117;BME280;69042;59.120;37.904;2023-04-24T04:36:25;99830.84;;;12.96;52.12
78117;BME280;69042;59.120;37.904;2023-04-24T04:38:59;99821.53;;;13.06;52.14
78117;BME280;69042;59.120;37.904;2023-04-24T04:41:44;99829.38;;;13.22;51.82
78117;BME280;69042;59.120;37.904;2023-04-24T04:44:15;99827.84;;;13.34;51.69
78117;BME280;69042;59.120;37.904;2023-04-24T04:46:41;99823.75;;;13.44;51.35
78117;BME280;69042;59.120;37.904;2023-04-24T04:49:22;99816.75;;;13.59;51.01
78117;BME280;69042;59.120;37.904;2023-04-24T04:51:50;99820.31;;;13.72;51.21
78117;BME280;69042;59.120;37.904;2023-04-24T04:54:17;99823.06;;;13.85;51.07
78117;BME280;69042;59.120;37.904;2023-04-24T04:56:44;99824.09;;;13.97;50.63
78117;BME280;69042;59.120;37.904;2023-04-24T04:59:10;99822.63;;;14.07;50.48
78117;BME280;69042;59.120;37.904;2023-04-24T05:01:39;99829.72;;;14.20;50.10
78117;BME280;69042;59.120;37.904;2023-04-24T05:04:07;99822.97;;;14.30;49.83
78117;BME280;69042;59.120;37.904;2023-04-24T05:06:33;99823.25;;;14.40;49.68
78117;BME280;69042;59.120;37.904;2023-04-24T05:09:00;99830.47;;;14.50;49.56
78117;BME280;69042;59.120;37.904;2023-04-24T05:11:33;99823.59;;;14.62;49.46
78117;BME280;69042;59.120;37.904;2023-04-24T05:14:01;99827.31;;;14.72;49.13
78117;BME280;69042;59.120;37.904;2023-04-24T05:16:39;99828.44;;;14.83;48.87
78117;BME280;69042;59.120;37.904;2023-04-24T05:19:06;99823.63;;;14.89;48.93
78117;BME280;69042;59.120;37.904;2023-04-24T05:21:40;99821.34;;;14.97;48.44
78117;BME280;69042;59.120;37.904;2023-04-24T05:24:07;99820.94;;;15.04;48.28
78117;BME280;69042;59.120;37.904;2023-04-24T05:27:03;99821.38;;;15.10;48.22
78117;BME280;69042;59.120;37.904;2023-04-24T05:29:39;99820.97;;;15.16;48.25
78117;BME280;69042;59.120;37.904;2023-04-24T05:32:06;99829.41;;;15.22;48.08
78117;BME280;69042;59.120;37.904;2023-04-24T05:34:32;99831.66;;;15.28;47.64
78117;BME280;69042;59.120;37.904;2023-04-24T05:36:58;99822.59;;;15.32;47.46
78117;BME280;69042;59.120;37.904;2023-04-24T05:39:25;99827.56;;;15.36;47.65
78117;BME280;69042;59.120;37.904;2023-04-24T05:41:52;99826.41;;;15.40;47.45
78117;BME280;69042;59.120;37.904;2023-04-24T05:44:18;99830.31;;;15.48;47.39
78117;BME280;69042;59.120;37.904;2023-04-24T05:46:44;99832.75;;;15.51;47.03
78117;BME280;69042;59.120;37.904;2023-04-24T05:49:11;99830.94;;;15.51;47.09
78117;BME280;69042;59.120;37.904;2023-04-24T05:51:37;99822.53;;;15.59;47.06
78117;BME280;69042;59.120;37.904;2023-04-24T05:54:05;99823.06;;;15.64;46.85
78117;BME280;69042;59.120;37.904;2023-04-24T05:56:32;99822.59;;;15.72;46.92
78117;BME280;69042;59.120;37.904;2023-04-24T05:59:00;99830.81;;;15.80;46.94
78117;BME280;69042;59.120;37.904;2023-04-24T06:01:26;99824.28;;;15.86;46.67
78117;BME280;69042;59.120;37.904;2023-04-24T06:04:03;99831.88;;;15.90;46.41
78117;BME280;69042;59.120;37.904;2023-04-24T06:06:30;99830.81;;;15.93;46.49
78117;BME280;69042;59.120;37.904;2023-04-24T06:08:58;99828.59;;;15.99;46.37
78117;BME280;69042;59.120;37.904;2023-04-24T06:11:26;99829.00;;;16.06;46.37
78117;BME280;69042;59.120;37.904;2023-04-24T06:13:53;99832.91;;;16.13;46.24
78117;BME280;69042;59.120;37.904;2023-04-24T06:16:42;99833.09;;;16.23;46.28
78117;BME280;69042;59.120;37.904;2023-04-24T06:19:25;99833.19;;;16.34;45.92
78117;BME280;69042;59.120;37.904;2023-04-24T06:21:52;99832.66;;;16.42;45.95
78117;BME280;69042;59.120;37.904;2023-04-24T06:24:18;99838.13;;;16.52;45.88
78117;BME280;69042;59.120;37.904;2023-04-24T06:26:44;99845.38;;;16.61;45.75
78117;BME280;69042;59.120;37.904;2023-04-24T06:29:11;99835.22;;;16.68;45.34
78117;BME280;69042;59.120;37.904;2023-04-24T06:31:37;99838.25;;;16.74;45.46
78117;BME280;69042;59.120;37.904;2023-04-24T06:34:03;99832.25;;;16.85;45.47
78117;BME280;69042;59.120;37.904;2023-04-24T06:36:30;99835.03;;;16.95;45.22
78117;BME280;69042;59.120;37.904;2023-04-24T06:38:57;99831.13;;;17.00;44.99
78117;BME280;69042;59.120;37.904;2023-04-24T06:41:23;99838.47;;;17.08;44.89
78117;BME280;69042;59.120;37.904;2023-04-24T06:43:50;99832.66;;;17.16;44.66
78117;BME280;69042;59.120;37.904;2023-04-24T06:46:16;99833.25;;;17.19;44.59
78117;BME280;69042;59.120;37.904;2023-04-24T06:48:43;99832.78;;;17.25;44.47
78117;BME280;69042;59.120;37.904;2023-04-24T06:51:09;99832.22;;;17.33;44.45
78117;BME280;69042;59.120;37.904;2023-04-24T06:53:36;99832.50;;;17.41;44.28
78117;BME280;69042;59.120;37.904;2023-04-24T06:56:02;99823.75;;;17.52;44.25
78117;BME280;69042;59.120;37.904;2023-04-24T06:58:30;99828.22;;;17.63;43.87
78117;BME280;69042;59.120;37.904;2023-04-24T07:00:56;99837.25;;;17.72;43.94
78117;BME280;69042;59.120;37.904;2023-04-24T07:03:24;99833.72;;;17.84;43.96
78117;BME280;69042;59.120;37.904;2023-04-24T07:05:50;99833.72;;;17.95;43.93
78117;BME280;69042;59.120;37.904;2023-04-24T07:08:17;99839.50;;;18.12;43.76
78117;BME280;69042;59.120;37.904;2023-04-24T07:10:44;99836.47;;;18.27;43.29
78117;BME280;69042;59.120;37.904;2023-04-24T07:13:10;99837.47;;;18.38;42.88
78117;BME280;69042;59.120;37.904;2023-04-24T07:15:36;99838.53;;;18.46;43.03
78117;BME280;69042;59.120;37.904;2023-04-24T07:18:03;99836.47;;;18.50;42.67
78117;BME280;69042;59.120;37.904;2023-04-24T07:20:29;99837.81;;;18.56;42.72
78117;BME280;69042;59.120;37.904;2023-04-24T07:22:55;99831.63;;;18.66;42.60
78117;BME280;69042;59.120;37.904;2023-04-24T07:25:21;99837.28;;;18.84;42.48
78117;BME280;69042;59.120;37.904;2023-04-24T07:27:47;99839.66;;;18.99;42.54
78117;BME280;69042;59.120;37.904;2023-04-24T07:30:14;99832.50;;;19.10;42.14
78117;BME280;69042;59.120;37.904;2023-04-24T13:02:08;99611.28;;;33.62;18.60
78117;BME280;69042;59.120;37.904;2023-04-24T13:04:36;99609.19;;;33.64;18.78
78117;BME280;69042;59.120;37.904;2023-04-24T13:07:02;99606.88;;;33.79;18.81
78117;BME280;69042;59.120;37.904;2023-04-24T13:09:28;99602.38;;;34.04;19.17
78117;BME280;69042;59.120;37.904;2023-04-24T13:11:54;99597.50;;;34.12;18.22
78117;BME280;69042;59.120;37.904;2023-04-24T13:14:22;99602.78;;;33.58;18.00
78117;BME280;69042;59.120;37.904;2023-04-24T13:16:49;99600.88;;;32.53;18.70
78117;BME280;69042;59.120;37.904;2023-04-24T13:19:15;99601.88;;;32.02;19.39
78117;BME280;69042;59.120;37.904;2023-04-24T13:21:41;99604.81;;;32.26;19.42
78117;BME280;69042;59.120;37.904;2023-04-24T13:24:08;99601.44;;;32.62;19.60
78117;BME280;69042;59.120;37.904;2023-04-24T13:26:35;99598.53;;;32.64;18.78
78117;BME280;69042;59.120;37.904;2023-04-24T13:29:01;99604.78;;;32.32;19.23
78117;BME280;69042;59.120;37.904;2023-04-24T13:31:28;99611.22;;;32.00;18.95
78117;BME280;69042;59.120;37.904;2023-04-24T13:33:55;99602.94;;;31.29;19.59
78117;BME280;69042;59.120;37.904;2023-04-24T13:36:21;99605.28;;;31.06;19.91
78117;BME280;69042;59.120;37.904;2023-04-24T13:38:47;99598.75;;;31.47;20.78
78117;BME280;69042;59.120;37.904;2023-04-24T13:41:13;99607.03;;;32.04;19.91
78117;BME280;69042;59.120;37.904;2023-04-24T13:43:39;99603.25;;;32.43;19.64
78117;BME280;69042;59.120;37.904;2023-04-24T13:46:07;99592.84;;;32.72;20.11
78117;BME280;69042;59.120;37.904;2023-04-24T13:48:33;99590.78;;;32.92;19.08
78117;BME280;69042;59.120;37.904;2023-04-24T13:51:00;99587.13;;;32.80;19.19
78117;BME280;69042;59.120;37.904;2023-04-24T13:53:26;99593.13;;;32.32;19.43
78117;BME280;69042;59.120;37.904;2023-04-24T13:55:52;99598.09;;;32.03;20.06
78117;BME280;69042;59.120;37.904;2023-04-24T13:58:18;99590.59;;;32.05;19.50
78117;BME280;69042;59.120;37.904;2023-04-24T14:00:44;99588.53;;;32.32;20.25
78117;BME280;69042;59.120;37.904;2023-04-24T14:03:10;99585.09;;;32.75;19.40
78117;BME280;69042;59.120;37.904;2023-04-24T14:05:38;99585.25;;;32.81;18.74
78117;BME280;69042;59.120;37.904;2023-04-24T14:08:04;99587.97;;;32.24;19.28
78117;BME280;69042;59.120;37.904;2023-04-24T14:10:30;99576.47;;;32.03;19.45
78117;BME280;69042;59.120;37.904;2023-04-24T14:12:56;99582.28;;;32.07;19.02
78117;BME280;69042;59.120;37.904;2023-04-24T14:15:22;99576.94;;;31.93;19.11
78117;BME280;69042;59.120;37.904;2023-04-24T14:17:48;99567.03;;;31.81;19.16
78117;BME280;69042;59.120;37.904;2023-04-24T14:20:15;99565.56;;;31.85;19.11
78117;BME280;69042;59.120;37.904;2023-04-24T14:22:41;99562.66;;;31.86;19.62
78117;BME280;69042;59.120;37.904;2023-04-24T14:25:08;99567.00;;;31.87;19.78
78117;BME280;69042;59.120;37.904;2023-04-24T14:27:34;99568.22;;;31.91;19.33
78117;BME280;69042;59.120;37.904;2023-04-24T14:30:01;99575.72;;;31.89;19.56
78117;BME280;69042;59.120;37.904;2023-04-24T14:32:27;99570.25;;;31.96;19.62
78117;BME280;69042;59.120;37.904;2023-04-24T14:34:53;99562.97;;;32.03;19.55
78117;BME280;69042;59.120;37.904;2023-04-24T14:37:20;99564.66;;;32.04;19.28
78117;BME280;69042;59.120;37.904;2023-04-24T14:39:46;99569.81;;;32.06;19.48
78117;BME280;69042;59.120;37.904;2023-04-24T14:42:12;99572.63;;;32.18;19.21
78117;BME280;69042;59.120;37.904;2023-04-24T14:44:39;99574.03;;;32.27;19.10
78117;BME280;69042;59.120;37.904;2023-04-24T14:47:05;99568.50;;;32.15;19.51
78117;BME280;69042;59.120;37.904;2023-04-24T14:49:32;99566.34;;;31.92;19.37
78117;BME280;69042;59.120;37.904;2023-04-24T14:51:58;99572.63;;;31.79;19.35
78117;BME280;69042;59.120;37.904;2023-04-24T14:54:24;99564.78;;;31.78;19.29
78117;BME280;69042;59.120;37.904;2023-04-24T14:56:51;99561.34;;;31.57;19.64
78117;BME280;69042;59.120;37.904;2023-04-24T14:59:17;99572.00;;;31.25;19.39
78117;BME280;69042;59.120;37.904;2023-04-24T15:01:43;99565.03;;;30.98;19.95
78117;BME280;69042;59.120;37.904;2023-04-24T15:04:09;99574.00;;;30.58;19.93
78117;BME280;69042;59.120;37.904;2023-04-24T15:06:35;99569.22;;;30.47;20.06
78117;BME280;69042;59.120;37.904;2023-04-24T15:09:01;99569.22;;;30.54;20.43
78117;BME280;69042;59.120;37.904;2023-04-24T15:11:28;99570.88;;;30.68;20.61
78117;BME280;69042;59.120;37.904;2023-04-24T15:13:56;99571.88;;;30.80;20.78
78117;BME280;69042;59.120;37.904;2023-04-24T15:16:23;99568.19;;;30.88;20.17
78117;BME280;69042;59.120;37.904;2023-04-24T15:18:50;99570.22;;;30.79;20.59
78117;BME280;69042;59.120;37.904;2023-04-24T15:21:16;99576.47;;;30.60;19.97
78117;BME280;69042;59.120;37.904;2023-04-24T15:23:42;99567.34;;;30.34;20.69
78117;BME280;69042;59.120;37.904;2023-04-24T15:26:08;99573.31;;;30.16;20.74
78117;BME280;69042;59.120;37.904;2023-04-24T15:28:34;99567.47;;;30.06;21.10
78117;BME280;69042;59.120;37.904;2023-04-24T15:31:00;99570.19;;;29.99;20.63
78117;BME280;69042;59.120;37.904;2023-04-24T15:33:26;99563.72;;;29.87;20.74
78117;BME280;69042;59.120;37.904;2023-04-24T15:35:52;99569.91;;;29.81;20.97
78117;BME280;69042;59.120;37.904;2023-04-24T15:38:18;99565.75;;;29.72;20.88
78117;BME280;69042;59.120;37.904;2023-04-24T15:40:44;99564.66;;;29.59;21.32
78117;BME280;69042;59.120;37.904;2023-04-24T15:43:10;99564.78;;;29.38;21.20
78117;BME280;69042;59.120;37.904;2023-04-24T15:45:37;99562.38;;;29.15;21.51
78117;BME280;69042;59.120;37.904;2023-04-24T15:48:03;99561.66;;;28.99;21.62
78117;BME280;69042;59.120;37.904;2023-04-24T15:50:29;99559.00;;;28.71;21.57
78117;BME280;69042;59.120;37.904;2023-04-24T15:52:55;99572.78;;;28.40;22.10
78117;BME280;69042;59.120;37.904;2023-04-24T15:55:21;99570.81;;;28.06;22.44
78117;BME280;69042;59.120;37.904;2023-04-24T15:57:48;99569.84;;;27.77;22.49
78117;BME280;69042;59.120;37.904;2023-04-24T16:00:15;99575.72;;;27.51;22.91
78117;BME280;69042;59.120;37.904;2023-04-24T16:02:43;99572.13;;;27.29;22.90
78117;BME280;69042;59.120;37.904;2023-04-24T16:05:09;99575.53;;;27.08;23.07
78117;BME280;69042;59.120;37.904;2023-04-24T16:07:37;99569.13;;;26.79;23.22
78117;BME280;69042;59.120;37.904;2023-04-24T16:10:04;99571.34;;;26.52;23.67
78117;BME280;69042;59.120;37.904;2023-04-24T16:12:30;99576.94;;;26.28;23.78
78117;BME280;69042;59.120;37.904;2023-04-24T16:14:56;99586.22;;;25.86;24.09
78117;BME280;69042;59.120;37.904;2023-04-24T16:17:22;99589.66;;;25.32;24.59
78117;BME280;69042;59.120;37.904;2023-04-24T16:19:48;99596.78;;;24.76;24.62
78117;BME280;69042;59.120;37.904;2023-04-24T16:22:15;99596.44;;;24.21;25.69
78117;BME280;69042;59.120;37.904;2023-04-24T16:24:41;99595.59;;;23.70;26.04
78117;BME280;69042;59.120;37.904;2023-04-24T16:27:08;99597.25;;;23.20;26.16
78117;BME280;69042;59.120;37.904;2023-04-24T16:29:34;99605.41;;;22.75;26.89
78117;BME280;69042;59.120;37.904;2023-04-24T16:32:00;99605.25;;;22.32;27.12
78117;BME280;69042;59.120;37.904;2023-04-24T16:34:26;99614.19;;;21.95;27.81
78117;BME280;69042;59.120;37.904;2023-04-24T16:36:53;99617.41;;;21.61;27.97
78117;BME280;69042;59.120;37.904;2023-04-24T16:39:19;99611.81;;;21.27;28.54
78117;BME280;69042;59.120;37.904;2023-04-24T16:41:47;99612.88;;;20.97;29.02
78117;BME280;69042;59.120;37.904;2023-04-24T16:44:15;99621.44;;;20.71;29.27
78117;BME280;69042;59.120;37.904;2023-04-24T16:46:42;99623.53;;;20.48;29.34
78117;BME280;69042;59.120;37.904;2023-04-24T16:49:08;99618.50;;;20.26;29.96
78117;BME280;69042;59.120;37.904;2023-04-24T16:51:34;99623.09;;;20.04;30.04
78117;BME280;69042;59.120;37.904;2023-04-24T16:54:01;99624.72;;;19.86;30.17
78117;BME280;69042;59.120;37.904;2023-04-24T16:56:27;99626.31;;;19.67;30.67
78117;BME280;69042;59.120;37.904;2023-04-24T16:58:53;99628.75;;;19.49;30.81
78117;BME280;69042;59.120;37.904;2023-04-24T17:01:19;99639.84;;;19.33;31.10
78117;BME280;69042;59.120;37.904;2023-04-24T17:03:45;99635.03;;;19.18;31.78
78117;BME280;69042;59.120;37.904;2023-04-24T17:06:12;99642.50;;;19.03;31.47
78117;BME280;69042;59.120;37.904;2023-04-24T17:08:38;99640.16;;;18.88;31.83
78117;BME280;69042;59.120;37.904;2023-04-24T17:11:04;99645.63;;;18.76;32.11
78117;BME280;69042;59.120;37.904;2023-04-24T17:13:30;99651.00;;;18.64;32.08
78117;BME280;69042;59.120;37.904;2023-04-24T17:15:56;99643.44;;;18.48;32.54
78117;BME280;69042;59.120;37.904;2023-04-24T17:18:23;99650.22;;;18.41;32.68
78117;BME280;69042;59.120;37.904;2023-04-24T17:20:49;99654.59;;;18.31;32.91
78117;BME280;69042;59.120;37.904;2023-04-24T17:23:15;99649.34;;;18.20;33.32
78117;BME280;69042;59.120;37.904;2023-04-24T17:25:41;99649.38;;;18.08;33.40
78117;BME280;69042;59.120;37.904;2023-04-24T17:28:19;99655.41;;;17.99;33.68
78117;BME280;69042;59.120;37.904;2023-04-24T17:30:48;99659.63;;;17.91;33.77
78117;BME280;69042;59.120;37.904;2023-04-24T17:33:14;99664.66;;;17.82;33.80
78117;BME280;69042;59.120;37.904;2023-04-24T17:35:40;99667.03;;;17.74;34.03
78117;BME280;69042;59.120;37.904;2023-04-24T17:38:06;99672.00;;;17.67;34.20
78117;BME280;69042;59.120;37.904;2023-04-24T17:40:33;99670.78;;;17.60;34.50
78117;BME280;69042;59.120;37.904;2023-04-24T17:42:59;99677.50;;;17.53;34.69
78117;BME280;69042;59.120;37.904;2023-04-24T17:45:25;99673.66;;;17.46;34.87
78117;BME280;69042;59.120;37.904;2023-04-24T17:47:51;99676.91;;;17.38;34.87
78117;BME280;69042;59.120;37.904;2023-04-24T17:50:18;99674.84;;;17.31;35.14
78117;BME280;69042;59.120;37.904;2023-04-24T17:52:44;99678.19;;;17.21;35.30
78117;BME280;69042;59.120;37.904;2023-04-24T17:55:10;99677.81;;;17.15;35.40
78117;BME280;69042;59.120;37.904;2023-04-24T17:57:36;99682.72;;;17.08;35.54
78117;BME280;69042;59.120;37.904;2023-04-24T18:00:03;99679.72;;;17.01;35.78
78117;BME280;69042;59.120;37.904;2023-04-24T18:02:31;99688.09;;;16.95;35.84
78117;BME280;69042;59.120;37.904;2023-04-24T18:04:58;99689.50;;;16.88;36.10
78117;BME280;69042;59.120;37.904;2023-04-24T18:07:24;99691.66;;;16.83;35.99
78117;BME280;69042;59.120;37.904;2023-04-24T18:09:50;99689.34;;;16.78;36.22
78117;BME280;69042;59.120;37.904;2023-04-24T18:12:16;99689.78;;;16.72;36.21
78117;BME280;69042;59.120;37.904;2023-04-24T18:14:42;99682.22;;;16.68;36.44
78117;BME280;69042;59.120;37.904;2023-04-24T18:17:08;99687.94;;;16.61;36.62
78117;BME280;69042;59.120;37.904;2023-04-24T18:19:34;99683.88;;;16.57;36.76
78117;BME280;69042;59.120;37.904;2023-04-24T18:22:01;99684.22;;;16.53;36.85